August 17, 2022

Time Code Weather Temp. Visibility Ceiling Wind METAR/SPECI
08:30
V
11 °C 10 km+ - 050° 050° 3 kt METAR EINN 170730Z 05003KT 020V080 9999 FEW030 11/08 Q1019 NOSIG
08:00
V
9 °C 10 km+ - 020° 020° 2 kt METAR EINN 170700Z 02002KT CAVOK 09/08 Q1019 NOSIG
07:30
V
9 °C 10 km+ - 010° 010° 3 kt METAR EINN 170630Z 01003KT CAVOK 09/07 Q1019 NOSIG
07:00
V
8 °C 10 km+ - 070° 070° 2 kt METAR EINN 170600Z 07002KT CAVOK 08/07 Q1019 NOSIG
06:30
V
8 °C 10 km+ - 360° 360° 3 kt METAR EINN 170530Z 36003KT CAVOK 08/07 Q1019 NOSIG
06:00
V
9 °C 10 km+ - 320° 320° 6 kt METAR EINN 170500Z 32006KT CAVOK 09/08 Q1019 NOSIG
05:30
V
9 °C 10 km+ - 320° 320° 7 kt METAR EINN 170430Z 32007KT CAVOK 09/07 Q1018 NOSIG
05:00
V
9 °C 10 km+ - 330° 330° 7 kt METAR EINN 170400Z 33007KT CAVOK 09/08 Q1018 NOSIG
04:30
V
9 °C 10 km+ - 320° 320° 7 kt METAR EINN 170330Z 32007KT CAVOK 09/08 Q1018 NOSIG
04:00
V
9 °C 10 km+ - 350° 350° 2 kt METAR EINN 170300Z 35002KT CAVOK 09/08 Q1018 NOSIG
03:30
V
10 °C 10 km+ - 320° 320° 5 kt METAR EINN 170230Z 32005KT CAVOK 10/08 Q1018 NOSIG
03:00
V
10 °C 10 km+ - 340° 340° 4 kt METAR EINN 170200Z 34004KT CAVOK 10/08 Q1018 NOSIG
02:30
V
10 °C 10 km+ - 320° 320° 7 kt METAR EINN 170130Z 32007KT CAVOK 10/08 Q1018 NOSIG
02:00
V
10 °C 10 km+ - 330° 330° 6 kt METAR EINN 170100Z 33006KT CAVOK 10/08 Q1018 NOSIG
01:30
V
11 °C 10 km+ - 330° 330° 5 kt METAR EINN 170030Z 33005KT CAVOK 11/08 Q1018 NOSIG
01:00
V
11 °C 10 km+ - 330° 330° 7 kt METAR EINN 170000Z 33007KT CAVOK 11/08 Q1019 NOSIG
00:30
V
12 °C 10 km+ - 330° 330° 7 kt METAR EINN 162330Z 33007KT 9999 FEW040 SCT050 12/08 Q1018 NOSIG
00:00
V
12 °C 10 km+ 5,700 ft 340° 340° 7 kt METAR EINN 162300Z 34007KT 9999 FEW035 BKN057 12/08 Q1019 NOSIG

August 16, 2022

Time Code Weather Temp. Visibility Ceiling Wind METAR/SPECI
23:30
V
13 °C 10 km+ 5,700 ft 330° 330° 9 kt METAR EINN 162230Z 33009KT 9999 FEW035 BKN057 13/09 Q1018 NOSIG
23:00
V
13 °C 10 km+ - 330° 330° 7 kt METAR EINN 162200Z 33007KT 9999 FEW035 SCT060 13/09 Q1018 NOSIG
22:30
V
13 °C 10 km+ - 330° 330° 8 kt METAR EINN 162130Z 33008KT 9999 FEW035 13/08 Q1018 NOSIG
22:00
V
13 °C 10 km+ - 350° 350° 7 kt METAR EINN 162100Z 35007KT 9999 FEW035 13/08 Q1017 NOSIG
21:30
V
14 °C 10 km+ - 340° 340° 11 kt METAR EINN 162030Z 34011KT 9999 FEW035 14/08 Q1017 NOSIG
21:00
V
14 °C 10 km+ - 340° 340° 8 kt METAR EINN 162000Z 34008KT 9999 FEW035 14/07 Q1017 NOSIG
20:30
V
15 °C 10 km+ - 350° 350° 11 kt METAR EINN 161930Z 35011KT 9999 FEW030 15/07 Q1016 NOSIG
20:00
V
16 °C 10 km+ - 350° 350° 11 kt METAR EINN 161900Z 35011KT 9999 FEW015 SCT050 16/07 Q1016 NOSIG
19:30
V
16 °C 10 km+ 5,000 ft 340° 340° 9 kt METAR EINN 161830Z 34009KT 9999 FEW015 BKN050 16/07 Q1016 NOSIG
19:00
V
16 °C 10 km+ - 350° 350° 15 kt METAR EINN 161800Z 35015KT 9999 FEW015 SCT040 16/08 Q1015 NOSIG
18:30
V
17 °C 10 km+ - 010° 010° 14 kt METAR EINN 161730Z 01014KT 9999 FEW015 SCT050 17/07 Q1015 NOSIG
18:00
V
17 °C 10 km+ 4,400 ft 360° 360° 12 kt METAR EINN 161700Z 36012KT 9999 FEW015 BKN044 17/07 Q1015 NOSIG
17:30
V
18 °C 10 km+ 5,000 ft 350° 350° 14 kt METAR EINN 161630Z 35014KT 9999 FEW015 BKN050 18/08 Q1014 NOSIG
17:00
V
18 °C 10 km+ 4,500 ft 360° 360° 17 kt METAR EINN 161600Z 36017KT 9999 FEW015 BKN045 18/06 Q1014 NOSIG
16:30
V
17 °C 10 km+ 5,000 ft 340° 340° 13 kt METAR EINN 161530Z 34013KT 9999 FEW015 BKN050 17/07 Q1015 NOSIG
16:00
V
18 °C 10 km+ 6,000 ft 340° 340° 13 kt METAR EINN 161500Z 34013KT 9999 FEW015 BKN060 18/06 Q1015 NOSIG
15:30
V
17 °C 10 km+ 5,000 ft 340° 340° 16 kt METAR EINN 161430Z 34016KT 9999 FEW015 BKN050 17/07 Q1015 NOSIG
15:00
V
17 °C 10 km+ 4,500 ft 330° 330° 11 kt METAR EINN 161400Z 33011KT 9999 FEW015 BKN045 17/07 Q1014 NOSIG
14:30
V
18 °C 10 km+ 4,500 ft 350° 350° 15 kt METAR EINN 161330Z 35015KT 9999 FEW023 BKN045 18/06 Q1014 NOSIG
14:00
V
18 °C 10 km+ 6,000 ft 340° 340° 16 kt METAR EINN 161300Z 34016KT 320V020 9999 FEW040 BKN060 18/07 Q1014 NOSIG
13:30
V
18 °C 10 km+ 6,000 ft 350° 350° 16 kt METAR EINN 161230Z 35016KT 9999 FEW037 BKN060 18/07 Q1014 NOSIG
13:00
V
17 °C 10 km+ 6,000 ft 340° 340° 14 kt METAR EINN 161200Z 34014KT 9999 SCT038 BKN060 17/06 Q1014 NOSIG
12:30
V
17 °C 10 km+ 5,000 ft 360° 360° 14 kt METAR EINN 161130Z 36014KT 330V030 9999 SCT038 BKN050 17/08 Q1014 NOSIG
12:00
V
17 °C 10 km+ 5,000 ft 350° 350° 15 kt METAR EINN 161100Z 35015KT 9999 SCT037 BKN050 17/07 Q1014 NOSIG
11:30
V
17 °C 10 km+ - 360° 360° 16 kt METAR EINN 161030Z 36016KT 9999 FEW026 SCT060 17/08 Q1013 NOSIG
11:00
V
16 °C 10 km+ 6,000 ft 350° 350° 16 kt METAR EINN 161000Z 35016KT 9999 FEW027 BKN060 16/08 Q1013 NOSIG
10:30
V
16 °C 10 km+ 6,000 ft 350° 350° 15 kt METAR EINN 160930Z 35015KT 9999 SCT024 BKN060 16/09 Q1013 NOSIG
09:30
V
15 °C 10 km+ 5,000 ft 350° 350° 13 kt METAR EINN 160830Z 35013KT 9999 FEW035 BKN050 15/10 Q1013 NOSIG
09:00
V
15 °C 10 km+ 5,000 ft 350° 350° 12 kt METAR EINN 160800Z 35012KT 9999 FEW018 BKN050 15/10 Q1013 NOSIG
08:30
V
14 °C 10 km+ 6,000 ft 360° 360° 11 kt METAR EINN 160730Z 36011KT 9999 FEW018 BKN060 14/10 Q1012 NOSIG
08:00
V
14 °C 10 km+ 5,000 ft 360° 360° 12 kt METAR EINN 160700Z 36012KT 9999 FEW018 BKN050 14/10 Q1012 NOSIG
07:30
V
13 °C 10 km+ 4,800 ft 350° 350° 8 kt METAR EINN 160630Z 35008KT 9999 FEW018 BKN048 13/10 Q1012 NOSIG
07:00
V
13 °C 10 km+ 5,000 ft 350° 350° 8 kt METAR EINN 160600Z 35008KT 9999 FEW018 BKN050 13/10 Q1012 NOSIG
06:30
V
13 °C 10 km+ 5,000 ft 350° 350° 10 kt METAR EINN 160530Z 35010KT 9999 FEW016 BKN050 BKN060 13/10 Q1012 NOSIG
06:00
V
13 °C 10 km+ 6,000 ft 360° 360° 9 kt METAR EINN 160500Z 36009KT 9999 FEW016 BKN060 13/10 Q1011 NOSIG
05:30
V
14 °C 10 km+ 6,000 ft 350° 350° 14 kt METAR EINN 160430Z 35014KT 9999 FEW016 SCT050 BKN060 14/10 Q1011 NOSIG
05:00
V
14 °C 10 km+ 5,000 ft 350° 350° 13 kt METAR EINN 160400Z 35013KT 9999 FEW016 SCT040 BKN050 14/11 Q1011 NOSIG
04:30
V
14 °C 10 km+ 4,000 ft 350° 350° 14 kt METAR EINN 160330Z 35014KT 9999 FEW018 BKN040 14/11 Q1010 NOSIG
04:00
V
14 °C 10 km+ 3,800 ft 350° 350° 12 kt METAR EINN 160300Z 35012KT 9999 FEW018 BKN038 14/11 Q1010 NOSIG
03:30
V
15 °C 10 km+ 3,600 ft 360° 360° 12 kt METAR EINN 160230Z 36012KT 9999 FEW018 BKN036 BKN050 15/11 Q1010 NOSIG
03:00
V
15 °C 10 km+ 5,000 ft 360° 360° 13 kt METAR EINN 160200Z 36013KT 9999 FEW018 SCT036 BKN050 15/12 Q1010 NOSIG
02:30
V
15 °C 10 km+ 3,800 ft 350° 350° 14 kt METAR EINN 160130Z 35014KT 9999 FEW018 BKN038 BKN050 15/12 Q1009 NOSIG
02:00
V
15 °C 10 km+ 6,000 ft 350° 350° 12 kt METAR EINN 160100Z 35012KT 9999 FEW016 SCT037 BKN060 15/12 Q1009 NOSIG
01:30
V
15 °C 10 km+ 3,500 ft 350° 350° 11 kt METAR EINN 160030Z 35011KT 9999 FEW016 BKN035 15/12 Q1010 NOSIG
01:00
V
15 °C 10 km+ 3,500 ft 360° 360° 11 kt METAR EINN 160000Z 36011KT 9999 FEW028 BKN035 15/12 Q1009 NOSIG
00:30
V
15 °C 10 km+ 3,800 ft 350° 350° 12 kt METAR EINN 152330Z 35012KT 9999 FEW028 BKN038 BKN060 15/12 Q1009 NOSIG
00:00
V
15 °C 10 km+ 6,000 ft 350° 350° 11 kt METAR EINN 152300Z 35011KT 9999 FEW028 SCT044 BKN060 15/12 Q1009 NOSIG

August 15, 2022

Time Code Weather Temp. Visibility Ceiling Wind METAR/SPECI
23:30
V
16 °C 10 km+ 4,400 ft 360° 360° 11 kt METAR EINN 152230Z 36011KT 9999 SCT028 BKN044 BKN060 16/12 Q1009 NOSIG
23:00
M
16 °C 10 km+ 2,700 ft 360° 360° 10 kt METAR EINN 152200Z 36010KT 9999 FEW018 BKN027 BKN044 16/12 Q1009 NOSIG
22:30
M
16 °C 10 km+ 2,500 ft 360° 360° 10 kt METAR EINN 152130Z 36010KT 9999 FEW018 BKN025 BKN050 16/13 Q1008 NOSIG
22:00
V
16 °C 10 km+ 7,000 ft 360° 360° 12 kt METAR EINN 152100Z 36012KT 9999 FEW015 SCT050 BKN070 16/13 Q1008 NOSIG
21:30
V
16 °C 10 km+ 5,000 ft 360° 360° 15 kt METAR EINN 152030Z 36015KT 9999 FEW015 BKN050 16/13 Q1008 NOSIG
21:00
V
17 °C 10 km+ 5,000 ft 360° 360° 15 kt METAR EINN 152000Z 36015KT 9999 FEW015 BKN050 17/13 Q1007 NOSIG
20:30
V
17 °C 10 km+ 5,000 ft 360° 360° 15 kt METAR EINN 151930Z 36015KT 9999 SCT016 BKN050 17/14 Q1006 NOSIG
20:00
V
18 °C 10 km+ 9,000 ft 360° 360° 13 kt METAR EINN 151900Z 36013KT 9999 FEW017 BKN090 18/14 Q1006 NOSIG
19:30
V
18 °C 10 km+ 18,000 ft 360° 360° 14 kt METAR EINN 151830Z 36014KT 9999 FEW017 SCT090 BKN180 18/14 Q1006 NOSIG
19:00
V
18 °C 10 km+ 18,000 ft 010° 010° 16 kt METAR EINN 151800Z 01016KT 9999 FEW016 SCT120 BKN180 18/14 Q1005 NOSIG
18:30
V
19 °C 10 km+ 9,000 ft 360° 360° 16 kt METAR EINN 151730Z 36016KT 9999 FEW018 BKN090 19/14 Q1005 NOSIG
18:00
V
20 °C 10 km+ 8,000 ft 350° 350° 14 kt METAR EINN 151700Z 35014KT 9999 SCT018 BKN080 20/15 Q1005 NOSIG
17:30
V
20 °C 10 km+ 13,000 ft 010° 010° 15 kt METAR EINN 151630Z 01015KT 9999 FEW019 SCT060 BKN130 20/15 Q1004 NOSIG
17:00
V
21 °C 10 km+ 10,000 ft 360° 360° 14 kt METAR EINN 151600Z 36014KT 9999 FEW019 BKN100 21/15 Q1004 NOSIG
16:30
V
21 °C 10 km+ 9,000 ft 360° 360° 15 kt METAR EINN 151530Z 36015KT 9999 FEW030 SCT060 BKN090 21/16 Q1004 NOSIG
16:00
V
21 °C 10 km+ 9,000 ft 350° 350° 13 kt METAR EINN 151500Z 35013KT 9999 FEW030 SCT060 BKN090 21/16 Q1004 NOSIG
15:30
V
21 °C 10 km+ 6,000 ft 360° 360° 13 kt METAR EINN 151430Z 36013KT 9999 FEW029 BKN060 21/16 Q1004 NOSIG
15:00
V
21 °C 10 km+ 4,500 ft 350° 350° 13 kt METAR EINN 151400Z 35013KT 9999 SCT026 BKN045 21/16 Q1003 NOSIG
14:30
V
22 °C 10 km+ - 020° 020° 12 kt METAR EINN 151330Z 02012KT 9999 SCT028 22/14 Q1003 NOSIG
14:00
V
23 °C 10 km+ - 040° 040° 8 kt METAR EINN 151300Z 04008KT 9999 SCT024 SCT032 23/15 Q1003 NOSIG
13:30
V
22 °C 10 km+ - 040° 040° 10 kt METAR EINN 151230Z 04010KT 9999 SCT025 SCT035 22/15 Q1003 NOSIG
13:00
M
22 °C 10 km+ 2,900 ft 050° 050° 10 kt METAR EINN 151200Z 05010KT 9999 FEW020 BKN029 22/15 Q1003 NOSIG
12:30
V
21 °C 10 km+ 8,000 ft 050° 050° 11 kt METAR EINN 151130Z 05011KT 9999 FEW028 SCT045 BKN080 21/15 Q1003 NOSIG
12:00
V
20 °C 10 km+ 8,000 ft 030° 030° 12 kt METAR EINN 151100Z 03012KT 9999 FEW030 SCT050 BKN080 20/16 Q1003 NOSIG
11:30
V
19 °C 10 km+ 4,900 ft 030° 030° 12 kt METAR EINN 151030Z 03012KT 9999 FEW010 BKN049 19/16 Q1003 NOSIG
11:00
V
18 °C 10 km+ 4,500 ft 030° 030° 12 kt METAR EINN 151000Z 03012KT 9999 FEW005 BKN045 18/16 Q1003 NOSIG
10:30
V
18 °C 10 km+ 4,000 ft 020° 020° 10 kt METAR EINN 150930Z 02010KT 9999 FEW005 FEW018CB BKN040 18/16 Q1003 NOSIG
10:00
V
18 °C 10 km+ 14,000 ft 030° 030° 9 kt METAR EINN 150900Z 03009KT 9999 FEW005 FEW018CB SCT044 BKN140 18/16 Q1003 NOSIG
09:30
V
17 °C 10 km+ 14,000 ft 020° 020° 8 kt METAR EINN 150830Z 02008KT 9999 FEW005 FEW018CB SCT044 BKN140 17/16 Q1003 NOSIG
09:00
V
16 °C 10 km+ 13,000 ft 050° 050° 6 kt METAR EINN 150800Z 05006KT 9999 FEW003 FEW018CB SCT043 BKN130 16/16 Q1003 TEMPO 4000 SHRA
08:30
M
16 °C 7 km 4,400 ft 020° 020° 5 kt METAR EINN 150730Z 02005KT 7000 -SHRA FEW003 FEW018CB BKN044 16/15 Q1003 TEMPO 4000 SHRA
Older data

We and third parties follow your internet behavior on our website with cookies. If you continue, we assume you agree with our cookie policy. Learn more